Time;durP1;ratioP1;P1;durP2;ratioP2;P2;SDS_P1;SDS_P2;PMS_P1;PMS_P2;Temp;Humidity;BMP_temperature;BMP_pressure;BME280_temperature;BME280_humidity;BME280_pressure;Samples;Min_cycle;Max_cycle;Signal;HPM_P1;HPM_P2
2023/11/11 00:00:15;;;;;;;4.10;1.52;;;;;;;;;;5897935;29;20055;-83
2023/11/11 00:03:17;;;;;;;2.42;1.35;;;;;;;;;;5913111;29;20078;-81
2023/11/11 00:06:19;;;;;;;4.88;2.17;;;;;;;;;;5914340;29;20058;-82
2023/11/11 00:09:21;;;;;;;4.40;1.30;;;;;;;;;;5913275;29;20051;-83
2023/11/11 00:12:23;;;;;;;3.90;1.52;;;;;;;;;;5912283;29;20062;-83
2023/11/11 00:15:25;;;;;;;3.47;1.42;;;;;;;;;;5915081;29;20076;-83
2023/11/11 00:18:26;;;;;;;5.55;2.15;;;;;;;;;;5918371;29;20055;-83
2023/11/11 00:21:28;;;;;;;5.10;1.67;;;;;;;;;;5920305;29;20051;-81
2023/11/11 00:24:30;;;;;;;5.07;1.80;;;;;;;;;;5920843;29;20124;-83
2023/11/11 00:27:33;;;;;;;4.70;2.17;;;;;;;;;;5921413;29;20127;-82
2023/11/11 00:30:35;;;;;;;4.68;1.67;;;;;;;;;;5928889;29;20100;-81
2023/11/11 00:33:42;;;;;;;1.58;1.23;;;;;;;;;;5919649;29;20134;-81
2023/11/11 00:36:50;;;;;;;3.55;1.23;;;;;;;;;;5916821;29;20047;-81
2023/11/11 00:39:52;;;;;;;3.97;1.30;;;;;;;;;;5931347;29;20084;-82
2023/11/11 00:42:53;;;;;;;4.00;1.65;;;;;;;;;;5932040;29;20059;-81
2023/11/11 00:45:55;;;;;;;3.67;1.50;;;;;;;;;;5909522;29;20058;-83
2023/11/11 00:48:57;;;;;;;4.38;1.85;;;;;;;;;;5920512;29;20055;-81
2023/11/11 00:51:59;;;;;;;2.85;1.90;;;;;;;;;;5903823;29;20040;-83
2023/11/11 00:55:01;;;;;;;5.05;1.60;;;;;;;;;;5905068;29;20526;-81
2023/11/11 00:58:03;;;;;;;5.68;1.80;;;;;;;;;;5915691;29;20290;-80
2023/11/11 01:01:06;;;;;;;3.85;2.03;;;;;;;;;;5912129;29;20055;-81
2023/11/11 01:04:08;;;;;;;5.97;2.30;;;;;;;;;;5914105;29;20148;-83
2023/11/11 01:07:10;;;;;;;3.15;2.03;;;;;;;;;;5915188;29;20051;-83
2023/11/11 01:10:12;;;;;;;3.90;2.33;;;;;;;;;;5915766;29;20055;-83
2023/11/11 01:13:14;;;;;;;2.90;2.10;;;;;;;;;;5904278;29;20051;-82
2023/11/11 01:16:16;;;;;;;3.37;2.07;;;;;;;;;;5915298;29;20059;-82
2023/11/11 01:19:19;;;;;;;44.50;17.42;;;;;;;;;;5909259;29;20184;-83
2023/11/11 01:22:21;;;;;;;55.85;21.15;;;;;;;;;;5909631;29;20482;-83
2023/11/11 01:25:26;;;;;;;166.55;63.70;;;;;;;;;;5907570;29;20059;-82
2023/11/11 01:28:29;;;;;;;6.35;2.35;;;;;;;;;;5911785;29;20051;-81
2023/11/11 01:31:31;;;;;;;3.47;1.50;;;;;;;;;;5911708;29;20185;-82
2023/11/11 01:34:34;;;;;;;1.90;1.02;;;;;;;;;;5921629;29;20063;-82
2023/11/11 01:37:35;;;;;;;3.22;1.25;;;;;;;;;;5903702;29;20055;-83
2023/11/11 01:40:37;;;;;;;2.72;1.13;;;;;;;;;;5903998;29;20413;-82
2023/11/11 01:43:39;;;;;;;0.70;0.70;;;;;;;;;;5920377;29;20081;-80
2023/11/11 01:46:40;;;;;;;1.10;0.65;;;;;;;;;;5936503;29;20719;-79
2023/11/11 01:49:45;;;;;;;3.42;1.25;;;;;;;;;;5904539;29;20047;-80
2023/11/11 01:52:47;;;;;;;1.63;1.08;;;;;;;;;;5909486;29;20058;-80
2023/11/11 01:55:49;;;;;;;7.55;3.22;;;;;;;;;;5904906;30;20301;-82
2023/11/11 01:58:52;;;;;;;4.57;2.25;;;;;;;;;;5909107;30;20396;-80
2023/11/11 02:01:54;;;;;;;3.97;1.60;;;;;;;;;;5910122;30;20043;-83
2023/11/11 02:04:56;;;;;;;1.35;0.20;;;;;;;;;;5909150;29;20051;-80
2023/11/11 02:08:00;;;;;;;0.80;0.30;;;;;;;;;;5895648;30;20055;-83
2023/11/11 02:11:06;;;;;;;0.85;0.22;;;;;;;;;;5907107;30;20306;-82
2023/11/11 02:14:10;;;;;;;0.10;0.10;;;;;;;;;;5892718;30;20217;-82
2023/11/11 02:17:12;;;;;;;2.55;1.15;;;;;;;;;;5904910;30;20081;-83
2023/11/11 02:20:14;;;;;;;5.45;2.38;;;;;;;;;;5907049;30;20071;-85
2023/11/11 02:23:16;;;;;;;5.82;2.70;;;;;;;;;;5898414;29;20072;-85
2023/11/11 02:26:18;;;;;;;0.20;0.20;;;;;;;;;;5905463;30;20052;-85
2023/11/11 02:29:20;;;;;;;0.15;0.15;;;;;;;;;;5908301;30;20044;-84
2023/11/11 02:32:22;;;;;;;0.35;0.30;;;;;;;;;;5920442;29;20096;-84
2023/11/11 02:35:25;;;;;;;0.20;0.20;;;;;;;;;;5911081;30;20473;-85
2023/11/11 02:38:27;;;;;;;0.17;0.17;;;;;;;;;;5911414;29;20062;-83
2023/11/11 02:41:29;;;;;;;0.20;0.20;;;;;;;;;;5910510;29;20054;-85
2023/11/11 02:44:30;;;;;;;2.35;0.77;;;;;;;;;;5900636;29;20051;-84
2023/11/11 02:47:32;;;;;;;1.30;0.50;;;;;;;;;;5879714;29;1080727;-84
2023/11/11 02:50:34;;;;;;;0.20;0.20;;;;;;;;;;5931579;29;20423;-84
2023/11/11 02:53:36;;;;;;;0.50;0.40;;;;;;;;;;5896717;29;20059;-85
2023/11/11 02:56:37;;;;;;;4.13;1.80;;;;;;;;;;5898149;30;20060;-86
2023/11/11 02:59:40;;;;;;;0.55;0.40;;;;;;;;;;5920890;29;20104;-87
2023/11/11 03:02:41;;;;;;;0.40;0.40;;;;;;;;;;5921059;29;20607;-86
2023/11/11 03:05:43;;;;;;;0.20;0.20;;;;;;;;;;5910635;30;20146;-85
2023/11/11 03:08:45;;;;;;;2.40;0.80;;;;;;;;;;5928269;29;20052;-86
2023/11/11 03:11:46;;;;;;;0.20;0.20;;;;;;;;;;5917422;29;20689;-85
2023/11/11 03:14:48;;;;;;;0.22;0.15;;;;;;;;;;5928832;29;20780;-85
2023/11/11 03:17:50;;;;;;;0.20;0.20;;;;;;;;;;5922655;29;20059;-86
2023/11/11 03:20:52;;;;;;;1.42;0.30;;;;;;;;;;5903950;29;20078;-86
2023/11/11 03:23:55;;;;;;;0.60;0.60;;;;;;;;;;5936291;29;20044;-86
2023/11/11 03:26:56;;;;;;;0.40;0.40;;;;;;;;;;5925808;29;20453;-86
2023/11/11 03:29:58;;;;;;;0.30;0.30;;;;;;;;;;5911110;29;20098;-83
2023/11/11 03:33:00;;;;;;;0.30;0.20;;;;;;;;;;5932345;29;20111;-85
2023/11/11 03:36:02;;;;;;;0.80;0.40;;;;;;;;;;5937405;29;21135;-86
2023/11/11 03:39:04;;;;;;;0.88;0.50;;;;;;;;;;5922749;30;20067;-86
2023/11/11 03:42:06;;;;;;;0.70;0.60;;;;;;;;;;5913043;30;20161;-86
2023/11/11 03:45:12;;;;;;;1.17;0.60;;;;;;;;;;5924532;29;20051;-86
2023/11/11 03:48:14;;;;;;;0.88;0.47;;;;;;;;;;5912743;30;20508;-86
2023/11/11 03:51:16;;;;;;;0.98;0.50;;;;;;;;;;5911224;30;20047;-86
2023/11/11 03:54:18;;;;;;;6.22;2.88;;;;;;;;;;5897093;30;20058;-86
2023/11/11 03:57:19;;;;;;;2.15;0.93;;;;;;;;;;5893489;30;20056;-83
2023/11/11 04:00:21;;;;;;;1.50;0.65;;;;;;;;;;5925367;29;20051;-86
2023/11/11 04:03:23;;;;;;;1.30;1.00;;;;;;;;;;5920166;29;20135;-85
2023/11/11 04:06:25;;;;;;;2.05;0.90;;;;;;;;;;5896355;30;20639;-85
2023/11/11 04:09:30;;;;;;;2.63;1.58;;;;;;;;;;5913500;30;20062;-85
2023/11/11 04:12:32;;;;;;;6.07;2.63;;;;;;;;;;5927988;30;20048;-85
2023/11/11 04:15:34;;;;;;;3.97;1.88;;;;;;;;;;5913117;30;20062;-85
2023/11/11 04:18:37;;;;;;;4.78;2.40;;;;;;;;;;5896648;30;20456;-85
2023/11/11 04:21:39;;;;;;;;;;;;;;;;;;5911834;30;20055;-84
2023/11/11 04:24:40;;;;;;;5.55;2.35;;;;;;;;;;5915475;30;19936;-85
2023/11/11 04:27:43;;;;;;;5.28;3.22;;;;;;;;;;5894972;30;20055;-84
2023/11/11 04:30:46;;;;;;;5.07;2.92;;;;;;;;;;5907307;30;20043;-84
2023/11/11 04:33:48;;;;;;;4.93;2.60;;;;;;;;;;5909551;30;20465;-87
2023/11/11 04:36:51;;;;;;;5.13;3.23;;;;;;;;;;5926313;29;20180;-86
2023/11/11 04:39:57;;;;;;;7.10;3.63;;;;;;;;;;5907714;30;20382;-84
2023/11/11 04:42:59;;;;;;;7.60;4.00;;;;;;;;;;5925415;29;20099;-84
2023/11/11 04:46:02;;;;;;;10.05;4.55;;;;;;;;;;5910794;30;20116;-84
2023/11/11 04:49:04;;;;;;;11.55;5.00;;;;;;;;;;5920131;29;20055;-82
2023/11/11 04:52:06;;;;;;;7.65;3.70;;;;;;;;;;5894228;30;20052;-82
2023/11/11 04:55:08;;;;;;;6.55;3.72;;;;;;;;;;5898139;30;20051;-85
2023/11/11 04:58:10;;;;;;;9.90;3.67;;;;;;;;;;5893414;29;20060;-82
2023/11/11 05:01:12;;;;;;;8.43;4.35;;;;;;;;;;5914448;29;20058;-84
2023/11/11 05:04:13;;;;;;;9.18;4.00;;;;;;;;;;5917231;30;20058;-84
2023/11/11 05:07:15;;;;;;;5.72;3.72;;;;;;;;;;5921693;30;20075;-85
2023/11/11 05:10:17;;;;;;;8.38;4.35;;;;;;;;;;5921376;29;20062;-85
2023/11/11 05:13:20;;;;;;;12.07;5.15;;;;;;;;;;5921334;29;20508;-85
2023/11/11 05:16:38;;;;;;;10.07;5.28;;;;;;;;;;5925398;29;20055;-85
2023/11/11 05:19:40;;;;;;;11.85;4.63;;;;;;;;;;5918031;30;20059;-85
2023/11/11 05:22:43;;;;;;;7.88;4.50;;;;;;;;;;5916360;30;20061;-85
2023/11/11 05:25:44;;;;;;;12.77;5.07;;;;;;;;;;5922616;30;20055;-85
2023/11/11 05:28:46;;;;;;;9.32;4.68;;;;;;;;;;5918793;30;20055;-84
2023/11/11 05:31:48;;;;;;;8.63;4.72;;;;;;;;;;5911467;29;20066;-86
2023/11/11 05:34:50;;;;;;;7.47;4.35;;;;;;;;;;5926780;29;20070;-86
2023/11/11 05:37:53;;;;;;;10.15;4.35;;;;;;;;;;5941420;29;20054;-86
2023/11/11 05:40:55;;;;;;;9.73;4.78;;;;;;;;;;5931334;29;20554;-85
2023/11/11 05:43:57;;;;;;;10.40;4.88;;;;;;;;;;5922188;29;20058;-84
2023/11/11 05:46:59;;;;;;;7.88;4.13;;;;;;;;;;5932553;29;20409;-83
2023/11/11 05:50:01;;;;;;;11.00;4.38;;;;;;;;;;5916394;30;20060;-81
2023/11/11 05:53:03;;;;;;;13.95;6.47;;;;;;;;;;5918494;30;20085;-83
2023/11/11 05:56:08;;;;;;;8.75;4.85;;;;;;;;;;5914394;29;20054;-83
2023/11/11 05:59:09;;;;;;;7.32;4.65;;;;;;;;;;5915824;29;20054;-83
2023/11/11 06:02:14;;;;;;;7.10;3.60;;;;;;;;;;5917637;29;20197;-84
2023/11/11 06:05:15;;;;;;;3.05;2.15;;;;;;;;;;5906824;29;20070;-81
2023/11/11 06:08:19;;;;;;;5.10;2.33;;;;;;;;;;5917467;29;20156;-83
2023/11/11 06:11:21;;;;;;;97.70;30.20;;;;;;;;;;5894194;29;20055;-83
2023/11/11 06:14:23;;;;;;;67.50;20.95;;;;;;;;;;5917306;29;20625;-83
2023/11/11 06:17:24;;;;;;;6.05;2.75;;;;;;;;;;5929137;29;20048;-83
2023/11/11 06:20:28;;;;;;;24.88;6.82;;;;;;;;;;5920440;29;20424;-81
2023/11/11 06:23:30;;;;;;;16.17;5.57;;;;;;;;;;5903775;30;20047;-82
2023/11/11 06:26:36;;;;;;;3.67;1.83;;;;;;;;;;5907943;30;20094;-82
2023/11/11 06:29:38;;;;;;;1.30;1.05;;;;;;;;;;5900239;30;20055;-82
2023/11/11 06:32:42;;;;;;;428.15;112.00;;;;;;;;;;5922983;30;20607;-80
2023/11/11 06:35:44;;;;;;;3.75;1.50;;;;;;;;;;5908607;29;20048;-81
2023/11/11 06:38:46;;;;;;;4.00;1.67;;;;;;;;;;5901880;30;20055;-81
2023/11/11 06:41:48;;;;;;;2.28;1.65;;;;;;;;;;5903513;30;20056;-81
2023/11/11 06:44:50;;;;;;;56.38;15.85;;;;;;;;;;5906408;30;20139;-82
2023/11/11 06:47:52;;;;;;;3.17;1.90;;;;;;;;;;5900920;29;20047;-82
2023/11/11 06:50:54;;;;;;;3.15;2.10;;;;;;;;;;5894567;29;20449;-81
2023/11/11 06:53:56;;;;;;;5.22;2.08;;;;;;;;;;5923369;29;20086;-82
2023/11/11 06:56:58;;;;;;;2.95;2.20;;;;;;;;;;5922844;29;20055;-82
2023/11/11 06:59:59;;;;;;;8.93;4.38;;;;;;;;;;5911024;29;20507;-83
2023/11/11 07:03:02;;;;;;;3.63;2.40;;;;;;;;;;5907215;29;20541;-80
2023/11/11 07:06:06;;;;;;;3.58;2.05;;;;;;;;;;5923308;29;20051;-82
2023/11/11 07:09:07;;;;;;;;;;;;;;;;;;5909483;29;20767;-82
2023/11/11 07:12:12;;;;;;;2.40;1.90;;;;;;;;;;5908115;30;20079;-83
2023/11/11 07:15:15;;;;;;;3.83;2.40;;;;;;;;;;5890095;30;20056;-81
2023/11/11 07:18:17;;;;;;;8.35;3.85;;;;;;;;;;5897657;29;20071;-82
2023/11/11 07:21:21;;;;;;;2.20;1.95;;;;;;;;;;5905826;30;20050;-80
2023/11/11 07:24:24;;;;;;;3.08;1.95;;;;;;;;;;5888205;29;20071;-81
2023/11/11 07:27:25;;;;;;;3.63;1.95;;;;;;;;;;5909761;29;20197;-81
2023/11/11 07:30:27;;;;;;;3.17;1.98;;;;;;;;;;5893547;29;20048;-82
2023/11/11 07:33:30;;;;;;;1.60;1.50;;;;;;;;;;5909343;29;20471;-80
2023/11/11 07:36:32;;;;;;;1.60;1.30;;;;;;;;;;5910372;29;20075;-80
2023/11/11 07:39:34;;;;;;;6.88;3.40;;;;;;;;;;5896178;29;20056;-83
2023/11/11 07:42:36;;;;;;;2.83;1.80;;;;;;;;;;5899278;29;20081;-83
2023/11/11 07:45:38;;;;;;;3.55;2.00;;;;;;;;;;5923181;29;20059;-82
2023/11/11 07:48:41;;;;;;;2.95;1.90;;;;;;;;;;5935932;29;20150;-81
2023/11/11 07:51:43;;;;;;;2.78;1.98;;;;;;;;;;5922925;29;20050;-83
2023/11/11 07:54:45;;;;;;;18.42;9.10;;;;;;;;;;5922481;29;20050;-82
2023/11/11 07:57:47;;;;;;;3.15;1.83;;;;;;;;;;5922663;29;20107;-83
2023/11/11 08:00:51;;;;;;;4.72;2.40;;;;;;;;;;5933040;29;20167;-83
2023/11/11 08:03:53;;;;;;;7.45;4.25;;;;;;;;;;5920142;29;20047;-81
2023/11/11 08:06:55;;;;;;;4.30;2.05;;;;;;;;;;5901579;29;20059;-84
2023/11/11 08:09:57;;;;;;;3.53;2.40;;;;;;;;;;5935399;29;20419;-81
2023/11/11 08:12:59;;;;;;;3.60;1.63;;;;;;;;;;5906212;29;20051;-80
2023/11/11 08:16:01;;;;;;;3.58;2.40;;;;;;;;;;5904513;29;20190;-83
2023/11/11 08:19:04;;;;;;;3.30;2.05;;;;;;;;;;5916298;29;20055;-83
2023/11/11 08:22:07;;;;;;;;;;;;;;;;;;5905041;29;20062;-82
2023/11/11 08:25:13;;;;;;;2.92;2.40;;;;;;;;;;5917788;29;19932;-83
2023/11/11 08:28:17;;;;;;;4.72;2.33;;;;;;;;;;5916604;29;20051;-84
2023/11/11 08:31:19;;;;;;;3.72;2.53;;;;;;;;;;5921549;29;20074;-83
2023/11/11 08:34:29;;;;;;;5.55;2.45;;;;;;;;;;5932848;29;20040;-83
2023/11/11 08:37:32;;;;;;;3.17;2.08;;;;;;;;;;5916885;29;20066;-83
2023/11/11 08:40:33;;;;;;;4.57;2.75;;;;;;;;;;5891178;30;20086;-84
2023/11/11 08:43:35;;;;;;;5.65;2.30;;;;;;;;;;5894110;30;20143;-84
2023/11/11 08:46:38;;;;;;;6.22;2.30;;;;;;;;;;5917803;29;20062;-84
2023/11/11 08:49:40;;;;;;;2.85;2.00;;;;;;;;;;5916512;29;20052;-83
2023/11/11 08:52:42;;;;;;;3.88;2.33;;;;;;;;;;5935763;29;20126;-83
2023/11/11 08:55:44;;;;;;;4.80;2.42;;;;;;;;;;5906804;30;20058;-84
2023/11/11 08:58:46;;;;;;;3.10;2.00;;;;;;;;;;5922375;29;20439;-84
2023/11/11 09:01:48;;;;;;;3.42;1.95;;;;;;;;;;5934131;29;20055;-83
2023/11/11 09:04:52;;;;;;;3.78;2.30;;;;;;;;;;5913988;30;20047;-83
2023/11/11 09:07:54;;;;;;;4.63;2.05;;;;;;;;;;5906607;29;20049;-84
2023/11/11 09:10:56;;;;;;;5.78;1.92;;;;;;;;;;5920087;29;20134;-86
2023/11/11 09:13:59;;;;;;;6.43;2.38;;;;;;;;;;5941764;29;20055;-86
2023/11/11 09:17:02;;;;;;;7.13;2.22;;;;;;;;;;5916410;30;20066;-87
2023/11/11 09:20:09;;;;;;;4.63;2.33;;;;;;;;;;5923255;29;20400;-87
2023/11/11 09:23:11;;;;;;;3.90;2.40;;;;;;;;;;5934185;29;20138;-84
2023/11/11 09:26:15;;;;;;;4.30;2.08;;;;;;;;;;5932730;29;20130;-87
2023/11/11 09:29:18;;;;;;;3.72;2.20;;;;;;;;;;5932581;30;20047;-85
2023/11/11 09:32:20;;;;;;;4.20;1.90;;;;;;;;;;5933252;29;20104;-86
2023/11/11 09:35:22;;;;;;;5.90;2.20;;;;;;;;;;5922921;29;20066;-85
2023/11/11 09:38:23;;;;;;;5.57;2.28;;;;;;;;;;5941261;29;20550;-86
2023/11/11 09:41:27;;;;;;;4.60;2.25;;;;;;;;;;5929496;29;20119;-85
2023/11/11 09:44:29;;;;;;;5.70;2.50;;;;;;;;;;5918249;29;20047;-83
2023/11/11 09:47:37;;;;;;;3.95;2.08;;;;;;;;;;5938227;29;20052;-86
2023/11/11 09:50:39;;;;;;;3.42;1.83;;;;;;;;;;5938618;29;20059;-86
2023/11/11 09:53:43;;;;;;;4.70;2.05;;;;;;;;;;5921333;29;20059;-85
2023/11/11 09:56:45;;;;;;;3.67;1.80;;;;;;;;;;5907554;29;20055;-85
2023/11/11 09:59:51;;;;;;;4.97;2.30;;;;;;;;;;5943975;29;20089;-85
2023/11/11 10:02:52;;;;;;;4.00;1.80;;;;;;;;;;5921880;29;20153;-84
2023/11/11 10:05:54;;;;;;;4.75;1.60;;;;;;;;;;5936810;29;20448;-84
2023/11/11 10:08:56;;;;;;;3.10;1.80;;;;;;;;;;5912115;29;20191;-84
2023/11/11 10:11:59;;;;;;;2.67;1.60;;;;;;;;;;5912933;29;20066;-86
2023/11/11 10:15:04;;;;;;;2.80;1.80;;;;;;;;;;5922055;29;20054;-86
2023/11/11 10:18:06;;;;;;;3.30;1.70;;;;;;;;;;5936145;29;20175;-87
2023/11/11 10:21:09;;;;;;;4.68;1.60;;;;;;;;;;5926382;29;20058;-85
2023/11/11 10:24:10;;;;;;;2.90;1.50;;;;;;;;;;5937780;29;20492;-86
2023/11/11 10:27:12;;;;;;;3.47;1.75;;;;;;;;;;5905311;29;20150;-86
2023/11/11 10:30:23;;;;;;;6.00;1.50;;;;;;;;;;5932216;29;20047;-84
2023/11/11 10:33:26;;;;;;;2.58;1.40;;;;;;;;;;5926662;29;20059;-85
2023/11/11 10:36:38;;;;;;;4.43;1.50;;;;;;;;;;5898462;29;20133;-84
2023/11/11 10:39:40;;;;;;;4.80;2.00;;;;;;;;;;5922760;29;20059;-84
2023/11/11 10:42:46;;;;;;;2.72;1.45;;;;;;;;;;5918167;29;20083;-85
2023/11/11 10:45:48;;;;;;;3.40;1.30;;;;;;;;;;5931633;29;20570;-85
2023/11/11 10:48:50;;;;;;;4.88;1.30;;;;;;;;;;5924246;29;20047;-86
2023/11/11 10:51:53;;;;;;;4.45;1.30;;;;;;;;;;5938590;29;20165;-85
2023/11/11 10:54:58;;;;;;;3.42;1.70;;;;;;;;;;5939975;29;20134;-85
2023/11/11 10:58:00;;;;;;;2.72;1.45;;;;;;;;;;5934451;29;20075;-85
2023/11/11 11:01:02;;;;;;;6.05;1.92;;;;;;;;;;5923131;29;20070;-85
2023/11/11 11:04:05;;;;;;;6.57;1.75;;;;;;;;;;5920549;29;20093;-87
2023/11/11 11:07:13;;;;;;;3.83;1.63;;;;;;;;;;5923832;29;20516;-86
2023/11/11 11:10:27;;;;;;;3.78;2.15;;;;;;;;;;5915883;29;20143;-86
2023/11/11 11:13:31;;;;;;;2.92;1.60;;;;;;;;;;5910291;29;20543;-84
2023/11/11 11:16:34;;;;;;;3.42;1.70;;;;;;;;;;5917221;30;20052;-86
2023/11/11 11:20:09;;;;;;;1.95;1.33;;;;;;;;;;5930979;29;20059;-85
2023/11/11 11:23:11;;;;;;;4.43;1.33;;;;;;;;;;5898140;30;20588;-85
2023/11/11 11:26:24;;;;;;;3.65;1.50;;;;;;;;;;5914336;29;20640;-86
2023/11/11 11:29:26;;;;;;;4.05;1.27;;;;;;;;;;5916410;29;20054;-85
2023/11/11 11:32:30;;;;;;;3.13;1.10;;;;;;;;;;5924570;29;20055;-86
2023/11/11 11:35:38;;;;;;;1.60;1.10;;;;;;;;;;5912002;30;20399;-86
2023/11/11 11:38:40;;;;;;;3.33;1.40;;;;;;;;;;5911272;30;20377;-85
2023/11/11 11:41:45;;;;;;;3.67;1.30;;;;;;;;;;5923985;29;20097;-84
2023/11/11 11:44:58;;;;;;;3.88;1.40;;;;;;;;;;5921530;29;20138;-85
2023/11/11 11:48:00;;;;;;;;;;;;;;;;;;5893905;30;20142;-87
2023/11/11 11:51:07;;;;;;;3.97;1.40;;;;;;;;;;5911841;30;19941;-85
2023/11/11 11:54:09;;;;;;;3.50;1.48;;;;;;;;;;5929927;29;20048;-84
2023/11/11 11:57:12;;;;;;;4.15;1.60;;;;;;;;;;5915440;30;20225;-85
2023/11/11 12:00:14;;;;;;;;;;;;;;;;;;5921891;30;20139;-84
2023/11/11 12:03:16;;;;;;;3.47;1.70;;;;;;;;;;5916527;30;19930;-85
2023/11/11 12:06:19;;;;;;;3.30;1.60;;;;;;;;;;5919190;29;20051;-84
2023/11/11 12:09:22;;;;;;;2.67;1.55;;;;;;;;;;5930706;29;20051;-83
2023/11/11 12:12:28;;;;;;;3.47;1.30;;;;;;;;;;5936212;29;20055;-85
2023/11/11 12:15:30;;;;;;;3.30;1.45;;;;;;;;;;5933491;29;20567;-86
2023/11/11 12:18:34;;;;;;;2.03;1.52;;;;;;;;;;5930913;29;20162;-85
2023/11/11 12:21:41;;;;;;;3.13;1.52;;;;;;;;;;5905626;30;20079;-85
2023/11/11 12:24:43;;;;;;;3.20;1.60;;;;;;;;;;5931388;29;20062;-87
2023/11/11 12:27:50;;;;;;;4.80;1.67;;;;;;;;;;5911152;30;20063;-88
2023/11/11 12:31:04;;;;;;;5.35;1.67;;;;;;;;;;5909441;29;20189;-88
2023/11/11 12:34:08;;;;;;;4.72;1.90;;;;;;;;;;5917941;29;20195;-86
2023/11/11 12:37:10;;;;;;;4.03;1.98;;;;;;;;;;5921815;30;20184;-88
2023/11/11 12:40:12;;;;;;;3.67;1.70;;;;;;;;;;5903908;30;20055;-83
2023/11/11 12:43:15;;;;;;;3.00;1.55;;;;;;;;;;5921419;30;20201;-83
2023/11/11 12:46:17;;;;;;;2.92;1.70;;;;;;;;;;5920410;29;20063;-86
2023/11/11 12:49:27;;;;;;;2.43;2.17;;;;;;;;;;5927379;29;20059;-85
2023/11/11 12:52:30;;;;;;;2.70;1.70;;;;;;;;;;5911412;29;20134;-84
2023/11/11 12:55:32;;;;;;;4.45;1.90;;;;;;;;;;5902771;29;20083;-83
2023/11/11 12:58:34;;;;;;;2.20;1.60;;;;;;;;;;5939888;29;20059;-85
2023/11/11 13:01:38;;;;;;;3.97;1.80;;;;;;;;;;5921681;29;20428;-82
2023/11/11 13:04:41;;;;;;;5.47;1.77;;;;;;;;;;5939674;29;20057;-83
2023/11/11 13:07:43;;;;;;;3.50;1.50;;;;;;;;;;5925276;29;20055;-81
2023/11/11 13:10:45;;;;;;;2.75;1.42;;;;;;;;;;5922945;29;20061;-83
2023/11/11 13:13:51;;;;;;;3.65;1.50;;;;;;;;;;5940520;29;20131;-82
2023/11/11 13:16:54;;;;;;;6.90;1.50;;;;;;;;;;5909005;29;20059;-83
2023/11/11 13:19:59;;;;;;;2.15;1.50;;;;;;;;;;5905209;29;20059;-81
2023/11/11 13:23:01;;;;;;;3.35;1.50;;;;;;;;;;5908770;29;20055;-83
2023/11/11 13:26:03;;;;;;;3.33;1.40;;;;;;;;;;5926732;29;20055;-83
2023/11/11 13:29:07;;;;;;;1.88;1.20;;;;;;;;;;5898224;29;20629;-84
2023/11/11 13:32:11;;;;;;;4.13;1.42;;;;;;;;;;5918691;29;20073;-82
2023/11/11 13:35:16;;;;;;;3.47;1.40;;;;;;;;;;5917364;29;20052;-83
2023/11/11 13:38:20;;;;;;;2.15;1.30;;;;;;;;;;5901765;29;20051;-82
2023/11/11 13:41:26;;;;;;;1.95;1.17;;;;;;;;;;5916503;29;20098;-81
2023/11/11 13:44:28;;;;;;;3.05;1.02;;;;;;;;;;5912978;29;20523;-80
2023/11/11 13:47:30;;;;;;;2.65;1.10;;;;;;;;;;5931780;29;20065;-83
2023/11/11 13:50:32;;;;;;;2.80;1.08;;;;;;;;;;5923677;29;20055;-82
2023/11/11 13:53:34;;;;;;;1.53;1.03;;;;;;;;;;5922564;29;20059;-82
2023/11/11 13:56:36;;;;;;;4.20;1.40;;;;;;;;;;5908800;29;20059;-82
2023/11/11 13:59:38;;;;;;;4.03;1.30;;;;;;;;;;5927058;29;20070;-82
2023/11/11 14:02:40;;;;;;;3.13;1.10;;;;;;;;;;5921217;29;20067;-83
2023/11/11 14:05:44;;;;;;;3.92;1.40;;;;;;;;;;5939949;29;20451;-82
2023/11/11 14:08:46;;;;;;;4.57;1.25;;;;;;;;;;5907562;29;20047;-83
2023/11/11 14:11:47;;;;;;;2.85;1.23;;;;;;;;;;5926078;29;20063;-80
2023/11/11 14:14:49;;;;;;;2.72;1.05;;;;;;;;;;5926598;29;20287;-83
2023/11/11 14:17:54;;;;;;;1.25;0.95;;;;;;;;;;5921054;29;20055;-81
2023/11/11 14:20:59;;;;;;;1.05;0.73;;;;;;;;;;5916514;29;20052;-82
2023/11/11 14:24:02;;;;;;;0.50;0.50;;;;;;;;;;5906782;29;20058;-83
2023/11/11 14:27:05;;;;;;;1.30;0.95;;;;;;;;;;5911534;30;20496;-82
2023/11/11 14:30:09;;;;;;;1.70;0.90;;;;;;;;;;5903169;30;20056;-82
2023/11/11 14:33:11;;;;;;;5.10;1.58;;;;;;;;;;5926066;29;20075;-81
2023/11/11 14:36:13;;;;;;;1.58;1.10;;;;;;;;;;5916229;30;20059;-81
2023/11/11 14:39:14;;;;;;;1.25;1.10;;;;;;;;;;5916351;29;20531;-80
2023/11/11 14:42:17;;;;;;;2.60;1.20;;;;;;;;;;5914330;30;20062;-85
2023/11/11 14:45:20;;;;;;;2.95;1.38;;;;;;;;;;5926028;29;20067;-81
2023/11/11 14:48:22;;;;;;;2.13;1.92;;;;;;;;;;5915938;30;20052;-83
2023/11/11 14:51:25;;;;;;;2.20;1.50;;;;;;;;;;5913180;30;20201;-81
2023/11/11 14:54:29;;;;;;;3.37;1.87;;;;;;;;;;5928610;29;21137;-83
2023/11/11 14:57:36;;;;;;;4.15;2.20;;;;;;;;;;5906306;29;20460;-80
2023/11/11 15:00:37;;;;;;;8.45;3.10;;;;;;;;;;5918830;29;20567;-82
2023/11/11 15:03:39;;;;;;;3.28;1.60;;;;;;;;;;5919938;30;20190;-83
2023/11/11 15:06:41;;;;;;;2.47;0.93;;;;;;;;;;5919053;30;20271;-82
2023/11/11 15:09:44;;;;;;;2.45;1.00;;;;;;;;;;5912482;30;20058;-81
2023/11/11 15:12:48;;;;;;;1.40;0.85;;;;;;;;;;5943964;29;20104;-81
2023/11/11 15:15:50;;;;;;;2.15;0.80;;;;;;;;;;5926847;29;20051;-80
2023/11/11 15:18:52;;;;;;;1.30;1.00;;;;;;;;;;5894563;30;20111;-80
2023/11/11 15:21:54;;;;;;;1.67;1.13;;;;;;;;;;5918221;29;20140;-81
2023/11/11 15:24:56;;;;;;;2.08;1.00;;;;;;;;;;5907710;29;20062;-81
2023/11/11 15:27:57;;;;;;;2.58;1.35;;;;;;;;;;5919013;30;20239;-80
2023/11/11 15:30:59;;;;;;;2.63;1.60;;;;;;;;;;5937771;29;20175;-81
2023/11/11 15:34:02;;;;;;;3.47;1.23;;;;;;;;;;5918925;29;20063;-81
2023/11/11 15:37:12;;;;;;;1.45;1.10;;;;;;;;;;5913460;30;20051;-82
2023/11/11 15:40:14;;;;;;;0.90;0.73;;;;;;;;;;5916528;30;20427;-84
2023/11/11 15:43:18;;;;;;;2.80;1.58;;;;;;;;;;5927743;29;20074;-82
2023/11/11 15:46:21;;;;;;;2.85;1.73;;;;;;;;;;5901318;29;20071;-83
2023/11/11 15:49:24;;;;;;;4.68;1.85;;;;;;;;;;5915979;30;20132;-85
2023/11/11 15:52:27;;;;;;;3.88;1.45;;;;;;;;;;5907517;30;20056;-85
2023/11/11 15:55:29;;;;;;;5.25;2.70;;;;;;;;;;5921893;29;20129;-85
2023/11/11 15:58:31;;;;;;;7.18;3.72;;;;;;;;;;5895421;29;20139;-83
2023/11/11 16:01:32;;;;;;;2.13;1.40;;;;;;;;;;5894974;29;20052;-85
2023/11/11 16:04:34;;;;;;;4.78;2.78;;;;;;;;;;5911534;29;20082;-83
2023/11/11 16:07:36;;;;;;;3.42;1.77;;;;;;;;;;5914707;29;20543;-84
2023/11/11 16:10:38;;;;;;;2.55;1.85;;;;;;;;;;5919111;29;20059;-82
2023/11/11 16:13:39;;;;;;;2.63;1.73;;;;;;;;;;5919309;29;20059;-83
2023/11/11 16:16:41;;;;;;;1.90;1.80;;;;;;;;;;5917156;29;20333;-84
2023/11/11 16:19:46;;;;;;;2.58;1.60;;;;;;;;;;5925457;29;20056;-84
2023/11/11 16:22:50;;;;;;;5.63;1.35;;;;;;;;;;5919296;29;20456;-81
2023/11/11 16:25:52;;;;;;;1.30;0.90;;;;;;;;;;5920858;29;20054;-83
2023/11/11 16:28:54;;;;;;;1.42;1.08;;;;;;;;;;5921168;29;20058;-83
2023/11/11 16:31:56;;;;;;;1.50;1.38;;;;;;;;;;5929146;29;20519;-82
2023/11/11 16:34:58;;;;;;;3.75;1.60;;;;;;;;;;5916627;29;20062;-83
2023/11/11 16:38:00;;;;;;;2.20;1.02;;;;;;;;;;5932075;29;20058;-80
2023/11/11 16:41:03;;;;;;;1.25;0.98;;;;;;;;;;5933107;29;20104;-82
2023/11/11 16:44:04;;;;;;;2.63;0.90;;;;;;;;;;5935272;29;20090;-84
2023/11/11 16:47:07;;;;;;;2.38;0.90;;;;;;;;;;5928744;29;20534;-82
2023/11/11 16:50:12;;;;;;;2.23;1.00;;;;;;;;;;5930150;29;20055;-82
2023/11/11 16:53:14;;;;;;;12.98;3.88;;;;;;;;;;5930368;29;20102;-82
2023/11/11 16:56:17;;;;;;;1.80;1.15;;;;;;;;;;5932499;29;20062;-82
2023/11/11 16:59:20;;;;;;;3.53;1.23;;;;;;;;;;5904848;30;20055;-83
2023/11/11 17:02:22;;;;;;;;;;;;;;;;;;5906101;30;20133;-81
2023/11/11 17:05:25;;;;;;;1.90;1.50;;;;;;;;;;5910975;30;19933;-83
2023/11/11 17:08:27;;;;;;;4.78;3.30;;;;;;;;;;5911703;30;20143;-81
2023/11/11 17:11:29;;;;;;;5.45;4.20;;;;;;;;;;5926185;29;20060;-83
2023/11/11 17:14:30;;;;;;;4.53;2.63;;;;;;;;;;5918445;29;20473;-80
2023/11/11 17:17:32;;;;;;;3.65;2.47;;;;;;;;;;5921009;29;20051;-80
2023/11/11 17:20:37;;;;;;;3.45;1.83;;;;;;;;;;5916946;30;20074;-83
2023/11/11 17:23:39;;;;;;;3.70;1.50;;;;;;;;;;5915229;30;20772;-81
2023/11/11 17:26:41;;;;;;;5.40;1.27;;;;;;;;;;5912270;30;20056;-82
2023/11/11 17:29:43;;;;;;;1.95;1.30;;;;;;;;;;5933218;29;20142;-81
2023/11/11 17:32:45;;;;;;;2.03;1.33;;;;;;;;;;5920137;29;20067;-82
2023/11/11 17:35:47;;;;;;;3.13;1.70;;;;;;;;;;5921520;29;20047;-84
2023/11/11 17:38:49;;;;;;;2.90;1.60;;;;;;;;;;5929347;29;20127;-83
2023/11/11 17:41:51;;;;;;;2.63;1.83;;;;;;;;;;5942120;29;20195;-82
2023/11/11 17:44:52;;;;;;;4.25;2.10;;;;;;;;;;5942190;29;20062;-83
2023/11/11 17:47:54;;;;;;;5.63;3.05;;;;;;;;;;5940835;29;20063;-83
2023/11/11 17:50:56;;;;;;;6.28;3.38;;;;;;;;;;5926691;29;20457;-84
2023/11/11 17:53:58;;;;;;;10.57;4.82;;;;;;;;;;5941244;29;20138;-81
2023/11/11 17:57:01;;;;;;;4.18;2.55;;;;;;;;;;5941779;29;20080;-84
2023/11/11 18:00:12;;;;;;;3.42;2.25;;;;;;;;;;5925984;29;20062;-82
2023/11/11 18:03:14;;;;;;;4.18;2.33;;;;;;;;;;5922663;29;20459;-81
2023/11/11 18:06:16;;;;;;;4.30;2.30;;;;;;;;;;5922472;29;20272;-83
2023/11/11 18:09:18;;;;;;;3.78;1.95;;;;;;;;;;5938659;29;20050;-84
2023/11/11 18:12:20;;;;;;;12.65;6.35;;;;;;;;;;5938064;29;20051;-84
2023/11/11 18:15:22;;;;;;;5.50;2.38;;;;;;;;;;5935446;29;20054;-84